Time;durP1;ratioP1;P1;durP2;ratioP2;P2;SDS_P1;SDS_P2;PMS_P1;PMS_P2;Temp;Humidity;BMP_temperature;BMP_pressure;BME280_temperature;BME280_humidity;BME280_pressure;Samples;Min_cycle;Max_cycle;Signal;HPM_P1;HPM_P2
2022/05/29 00:01:27;;;;;;;0.00;0.00;;;15.90;55.80;;;;;;4165165;28;20053;-72
2022/05/29 00:03:50;;;;;;;0.00;0.00;;;15.80;56.00;;;;;;4164719;28;20129;-73
2022/05/29 00:06:14;;;;;;;0.00;0.00;;;15.80;56.40;;;;;;4164640;28;20053;-71
2022/05/29 00:08:42;;;;;;;0.00;0.00;;;15.90;56.30;;;;;;4137732;28;20065;-73
2022/05/29 00:11:09;;;;;;;;;;;16.00;56.10;;;;;;4151355;28;20057;-72
2022/05/29 00:13:44;;;;;;;0.00;0.00;;;16.00;56.00;;;;;;4165412;28;19921;-73
2022/05/29 00:16:09;;;;;;;0.00;0.00;;;16.00;56.40;;;;;;4164455;28;20050;-72
2022/05/29 00:18:36;;;;;;;0.00;0.00;;;16.00;56.40;;;;;;4164964;28;20064;-72
2022/05/29 00:21:06;;;;;;;0.00;0.00;;;16.00;56.40;;;;;;4165367;28;20049;-73
2022/05/29 00:23:37;;;;;;;0.00;0.00;;;16.00;56.50;;;;;;4164694;28;20045;-72
2022/05/29 00:26:02;;;;;;;0.00;0.00;;;16.00;56.70;;;;;;4164587;28;20056;-72
2022/05/29 00:28:26;;;;;;;0.00;0.00;;;15.90;56.80;;;;;;4164540;28;20054;-73
2022/05/29 00:30:51;;;;;;;0.00;0.00;;;15.80;57.10;;;;;;4164638;28;20492;-70
2022/05/29 00:33:20;;;;;;;0.00;0.00;;;15.70;57.40;;;;;;4165234;28;20080;-71
2022/05/29 00:35:54;;;;;;;0.00;0.00;;;15.60;57.50;;;;;;4164053;28;20391;-70
2022/05/29 00:38:18;;;;;;;0.00;0.00;;;15.50;57.80;;;;;;4164416;28;20095;-72
2022/05/29 00:41:02;;;;;;;0.00;0.00;;;15.50;57.90;;;;;;4164482;28;20061;-71
2022/05/29 00:43:29;;;;;;;0.00;0.00;;;15.40;57.90;;;;;;4178388;28;20442;-72
2022/05/29 00:45:58;;;;;;;0.00;0.00;;;15.20;58.20;;;;;;4164178;28;20058;-71
2022/05/29 00:48:25;;;;;;;0.00;0.00;;;15.10;58.80;;;;;;4165080;28;20073;-71
2022/05/29 00:50:55;;;;;;;0.00;0.00;;;15.00;59.00;;;;;;4165157;28;20425;-72
2022/05/29 00:53:21;;;;;;;0.00;0.00;;;15.00;59.50;;;;;;4164409;28;20111;-71
2022/05/29 00:55:50;;;;;;;0.00;0.00;;;14.90;59.70;;;;;;4164305;28;20460;-73
2022/05/29 00:58:20;;;;;;;0.00;0.00;;;14.80;60.20;;;;;;4164397;28;20061;-71
2022/05/29 01:01:03;;;;;;;0.00;0.00;;;14.70;60.60;;;;;;4164351;28;20360;-70
2022/05/29 01:03:29;;;;;;;0.00;0.00;;;14.70;60.80;;;;;;4164953;28;20349;-71
2022/05/29 01:06:06;;;;;;;0.00;0.00;;;14.70;60.80;;;;;;4164049;28;20456;-71
2022/05/29 01:08:43;;;;;;;0.00;0.00;;;14.60;60.90;;;;;;4163978;28;20460;-71
2022/05/29 01:11:44;;;;;;;0.00;0.00;;;14.60;61.00;;;;;;4177935;28;20076;-71
2022/05/29 01:14:16;;;;;;;0.00;0.00;;;14.50;61.10;;;;;;4164919;28;20045;-74
2022/05/29 01:17:18;;;;;;;0.00;0.00;;;14.40;61.30;;;;;;4164884;28;20049;-71
2022/05/29 01:20:13;;;;;;;0.00;0.00;;;14.50;61.40;;;;;;4146969;28;20120;-72
2022/05/29 01:23:13;;;;;;;0.00;0.00;;;14.50;61.20;;;;;;4164079;28;20184;-70
2022/05/29 01:25:57;;;;;;;0.00;0.00;;;14.60;61.20;;;;;;4150411;28;20063;-71
2022/05/29 01:28:52;;;;;;;0.00;0.00;;;14.50;61.20;;;;;;4151987;28;20060;-73
2022/05/29 01:31:38;;;;;;;0.00;0.00;;;14.50;61.20;;;;;;4164706;28;20137;-71
2022/05/29 01:34:15;;;;;;;0.00;0.00;;;14.50;61.30;;;;;;4163933;28;20062;-71
2022/05/29 01:36:48;;;;;;;0.00;0.00;;;14.40;61.50;;;;;;4164755;28;20049;-72
2022/05/29 01:39:27;;;;;;;0.00;0.00;;;14.50;61.70;;;;;;4177768;28;20048;-71
2022/05/29 01:42:01;;;;;;;0.00;0.00;;;14.50;61.60;;;;;;4151593;28;20065;-72
2022/05/29 01:44:50;;;;;;;0.00;0.00;;;14.50;61.40;;;;;;4163870;28;20049;-70
2022/05/29 01:47:46;;;;;;;0.00;0.00;;;14.60;61.20;;;;;;4164790;28;20080;-71
2022/05/29 01:50:17;;;;;;;0.00;0.00;;;14.60;61.10;;;;;;4166959;28;20053;-73
2022/05/29 01:52:52;;;;;;;0.00;0.00;;;14.60;61.00;;;;;;4167116;28;20057;-70
2022/05/29 01:55:19;;;;;;;0.00;0.00;;;14.60;60.90;;;;;;4167026;28;20100;-72
2022/05/29 01:57:50;;;;;;;0.00;0.00;;;14.50;61.00;;;;;;4166879;28;20037;-73
2022/05/29 02:00:13;;;;;;;0.00;0.00;;;14.40;61.30;;;;;;4180758;28;20386;-71
2022/05/29 02:02:53;;;;;;;0.00;0.00;;;14.40;61.20;;;;;;4152966;28;20041;-73
2022/05/29 02:05:30;;;;;;;0.00;0.00;;;14.40;61.20;;;;;;4166640;28;20447;-70
2022/05/29 02:08:01;;;;;;;0.00;0.00;;;14.40;61.00;;;;;;4180882;28;20482;-71
2022/05/29 02:10:23;;;;;;;;;;;14.30;60.80;;;;;;4167049;28;20057;-70
2022/05/29 02:12:57;;;;;;;0.00;0.00;;;14.20;60.90;;;;;;4152963;28;19968;-72
2022/05/29 02:15:29;;;;;;;0.00;0.00;;;14.10;60.90;;;;;;4153007;28;20050;-71
2022/05/29 02:17:58;;;;;;;0.00;0.00;;;14.20;60.80;;;;;;4166850;28;20426;-71
2022/05/29 02:20:36;;;;;;;0.00;0.00;;;14.20;60.70;;;;;;4166788;28;20609;-72
2022/05/29 02:23:07;;;;;;;0.00;0.00;;;14.20;60.50;;;;;;4166789;28;20053;-72
2022/05/29 02:25:37;;;;;;;0.00;0.00;;;14.30;60.40;;;;;;4166418;28;20092;-70
2022/05/29 02:28:08;;;;;;;0.00;0.00;;;14.30;60.10;;;;;;4153854;28;20084;-73
2022/05/29 02:30:46;;;;;;;0.00;0.00;;;14.30;60.10;;;;;;4166794;28;20071;-71
2022/05/29 02:33:15;;;;;;;0.00;0.00;;;14.10;60.40;;;;;;4166033;28;20053;-71
2022/05/29 02:36:19;;;;;;;0.00;0.00;;;14.10;60.40;;;;;;4139346;28;20136;-73
2022/05/29 02:38:50;;;;;;;0.00;0.00;;;14.20;60.30;;;;;;4152511;28;20061;-71
2022/05/29 02:41:24;;;;;;;0.00;0.00;;;14.20;60.10;;;;;;4166426;28;20049;-71
2022/05/29 02:43:50;;;;;;;0.00;0.00;;;14.10;60.10;;;;;;4166378;28;20626;-70
2022/05/29 02:46:49;;;;;;;0.00;0.00;;;14.00;60.40;;;;;;4152533;28;20092;-72
2022/05/29 02:49:25;;;;;;;0.00;0.00;;;14.00;60.60;;;;;;4166370;28;20136;-72
2022/05/29 02:52:01;;;;;;;0.00;0.00;;;13.80;60.90;;;;;;4166040;28;20103;-70
2022/05/29 02:54:29;;;;;;;0.00;0.00;;;13.70;61.20;;;;;;4166169;28;20049;-71
2022/05/29 02:56:52;;;;;;;0.00;0.00;;;13.70;61.30;;;;;;4179933;28;20143;-73
2022/05/29 02:59:17;;;;;;;0.00;0.00;;;13.80;61.10;;;;;;4179349;28;20048;-71
2022/05/29 03:01:59;;;;;;;0.00;0.00;;;13.80;61.10;;;;;;4165672;28;20127;-72
2022/05/29 03:04:54;;;;;;;0.00;0.00;;;13.70;61.00;;;;;;4166039;28;20132;-71
2022/05/29 03:07:39;;;;;;;0.00;0.00;;;13.60;61.30;;;;;;4165619;28;20518;-71
2022/05/29 03:10:20;;;;;;;0.00;0.00;;;13.60;61.30;;;;;;4179603;28;20128;-72
2022/05/29 03:12:54;;;;;;;0.00;0.00;;;13.60;61.30;;;;;;4165673;28;20041;-68
2022/05/29 03:15:40;;;;;;;0.00;0.00;;;13.60;61.60;;;;;;4165637;28;20041;-69
2022/05/29 03:18:20;;;;;;;0.00;0.00;;;13.70;61.60;;;;;;4165984;28;20088;-70
2022/05/29 03:20:58;;;;;;;0.00;0.00;;;13.70;62.00;;;;;;4151820;28;20061;-71
2022/05/29 03:23:27;;;;;;;0.00;0.00;;;13.80;61.30;;;;;;4151808;28;20061;-71
2022/05/29 03:25:56;;;;;;;0.00;0.00;;;13.70;61.30;;;;;;4151670;28;20066;-71
2022/05/29 03:28:35;;;;;;;0.00;0.00;;;13.70;61.50;;;;;;4179242;28;20049;-72
2022/05/29 03:31:02;;;;;;;0.00;0.00;;;13.70;61.60;;;;;;4165623;28;20479;-73
2022/05/29 03:33:29;;;;;;;0.00;0.00;;;13.70;61.60;;;;;;4152104;28;20528;-72
2022/05/29 03:35:53;;;;;;;0.00;0.00;;;13.60;61.80;;;;;;4179337;28;20103;-72
2022/05/29 03:38:18;;;;;;;0.00;0.00;;;13.60;61.80;;;;;;4165427;28;20061;-72
2022/05/29 03:40:42;;;;;;;0.00;0.00;;;13.70;61.60;;;;;;4151643;28;20085;-71
2022/05/29 03:43:06;;;;;;;0.00;0.00;;;13.70;61.60;;;;;;4179019;28;20379;-73
2022/05/29 03:45:31;;;;;;;0.00;0.00;;;13.70;61.50;;;;;;4179166;28;20092;-72
2022/05/29 03:47:58;;;;;;;0.00;0.00;;;13.80;61.30;;;;;;4151207;28;20056;-70
2022/05/29 03:50:23;;;;;;;0.00;0.00;;;13.80;61.10;;;;;;4151467;28;20057;-72
2022/05/29 03:52:51;;;;;;;0.00;0.00;;;13.90;60.90;;;;;;4178910;28;20533;-72
2022/05/29 03:55:22;;;;;;;0.00;0.00;;;13.90;60.90;;;;;;4138065;28;20449;-70
2022/05/29 03:57:44;;;;;;;0.00;0.00;;;13.90;61.00;;;;;;4164757;28;20049;-72
2022/05/29 04:00:13;;;;;;;0.00;0.00;;;13.90;60.80;;;;;;4165051;28;20064;-69
2022/05/29 04:02:35;;;;;;;0.00;0.00;;;13.90;60.70;;;;;;4178783;28;20448;-71
2022/05/29 04:04:57;;;;;;;0.00;0.00;;;13.90;60.70;;;;;;4164923;28;20119;-72
2022/05/29 04:07:19;;;;;;;0.00;0.00;;;13.90;60.80;;;;;;4164858;28;20709;-72
2022/05/29 04:12:24;;;;;;;0.00;0.00;;;13.80;61.10;;;;;;4153366;28;20046;-71
2022/05/29 04:14:48;;;;;;;0.00;0.00;;;13.70;61.30;;;;;;4164693;28;20095;-72
2022/05/29 04:17:15;;;;;;;0.00;0.00;;;13.80;61.40;;;;;;4164635;28;20054;-71
2022/05/29 04:19:38;;;;;;;0.00;0.00;;;13.80;61.50;;;;;;4178364;28;20056;-71
2022/05/29 04:22:05;;;;;;;0.00;0.00;;;13.80;61.50;;;;;;4150910;28;20049;-71
2022/05/29 04:24:27;;;;;;;0.00;0.00;;;13.90;61.50;;;;;;4164735;28;20108;-72
2022/05/29 04:26:50;;;;;;;0.00;0.00;;;13.90;61.70;;;;;;4164757;28;20128;-72
2022/05/29 04:29:15;;;;;;;0.00;0.00;;;13.90;61.90;;;;;;4150966;28;20369;-71
2022/05/29 04:32:59;;;;;;;0.00;0.00;;;13.70;62.30;;;;;;4178655;28;20455;-71
2022/05/29 04:34:28;;;;;;;0.00;0.00;;;13.50;63.00;;;;;;4154405;28;20124;-71
2022/05/29 04:36:50;;;;;;;0.00;0.00;;;13.50;63.50;;;;;;4164388;28;20048;-71
2022/05/29 04:39:12;;;;;;;0.00;0.00;;;13.40;63.80;;;;;;4164559;28;20057;-71
2022/05/29 04:41:34;;;;;;;0.00;0.00;;;13.40;64.20;;;;;;4164962;28;20065;-71
2022/05/29 04:43:58;;;;;;;0.00;0.00;;;13.50;64.50;;;;;;4164910;28;20135;-71
2022/05/29 04:46:22;;;;;;;0.00;0.00;;;13.50;64.60;;;;;;4151175;28;20046;-70
2022/05/29 04:48:45;;;;;;;0.00;0.00;;;13.70;64.40;;;;;;4164171;28;20054;-70
2022/05/29 04:51:07;;;;;;;0.00;0.00;;;13.80;63.90;;;;;;4178078;28;20115;-72
2022/05/29 04:53:33;;;;;;;0.00;0.00;;;13.90;63.60;;;;;;4164408;28;20038;-71
2022/05/29 04:55:59;;;;;;;0.00;0.00;;;13.90;63.20;;;;;;4164372;28;20107;-71
2022/05/29 04:58:25;;;;;;;0.00;0.00;;;13.70;63.20;;;;;;4178403;28;20386;-71
2022/05/29 05:00:47;;;;;;;0.00;0.00;;;13.80;63.10;;;;;;4164170;28;20041;-71
2022/05/29 05:03:12;;;;;;;0.00;0.00;;;13.90;62.90;;;;;;4164548;28;20503;-71
2022/05/29 05:05:36;;;;;;;0.00;0.00;;;14.00;62.70;;;;;;4150389;28;20057;-74
2022/05/29 05:08:02;;;;;;;0.00;0.00;;;14.00;62.30;;;;;;4164358;28;20372;-72
2022/05/29 05:10:23;;;;;;;0.00;0.00;;;14.00;62.30;;;;;;4151381;28;20084;-69
2022/05/29 05:12:46;;;;;;;0.00;0.00;;;14.10;62.40;;;;;;4164258;28;20542;-73
2022/05/29 05:15:10;;;;;;;0.00;0.00;;;14.00;62.40;;;;;;4150224;28;20180;-70
2022/05/29 05:17:35;;;;;;;0.00;0.00;;;14.10;62.40;;;;;;4164268;28;20048;-72
2022/05/29 05:20:00;;;;;;;0.00;0.00;;;14.10;62.20;;;;;;4150542;28;20053;-70
2022/05/29 05:22:24;;;;;;;0.00;0.00;;;14.00;62.20;;;;;;4151865;28;20060;-71
2022/05/29 05:24:46;;;;;;;0.00;0.00;;;14.20;62.10;;;;;;4167251;28;20049;-70
2022/05/29 05:27:08;;;;;;;0.00;0.00;;;14.30;62.10;;;;;;4181101;28;20134;-70
2022/05/29 05:29:38;;;;;;;0.00;0.00;;;14.40;61.90;;;;;;4154864;28;20472;-71
2022/05/29 05:32:03;;;;;;;0.00;0.00;;;14.30;61.60;;;;;;4153022;28;20133;-71
2022/05/29 05:34:27;;;;;;;0.00;0.00;;;14.40;61.50;;;;;;4181266;28;20099;-73
2022/05/29 05:36:49;;;;;;;0.00;0.00;;;14.30;62.00;;;;;;4167526;28;20080;-73
2022/05/29 05:39:11;;;;;;;0.00;0.00;;;14.10;62.20;;;;;;4180884;28;20076;-71
2022/05/29 05:41:36;;;;;;;0.00;0.00;;;14.10;62.40;;;;;;4153324;28;20507;-70
2022/05/29 05:43:58;;;;;;;0.00;0.00;;;14.20;62.50;;;;;;4167397;28;20542;-67
2022/05/29 05:46:22;;;;;;;0.00;0.00;;;14.20;62.30;;;;;;4167221;28;20083;-67
2022/05/29 05:48:48;;;;;;;0.00;0.00;;;14.20;62.60;;;;;;4167668;28;20049;-69
2022/05/29 05:51:16;;;;;;;0.00;0.00;;;14.30;62.90;;;;;;4167565;28;20073;-67
2022/05/29 05:53:42;;;;;;;0.00;0.00;;;14.50;63.20;;;;;;4167695;28;20057;-67
2022/05/29 05:56:09;;;;;;;0.00;0.00;;;14.60;62.80;;;;;;4154321;28;20443;-70
2022/05/29 05:58:31;;;;;;;0.00;0.00;;;14.60;62.50;;;;;;4181655;28;20045;-67
2022/05/29 06:00:55;;;;;;;0.00;0.00;;;14.70;62.20;;;;;;4157785;28;20049;-70
2022/05/29 06:03:19;;;;;;;0.00;0.00;;;14.70;62.00;;;;;;4191624;28;20048;-69
2022/05/29 06:05:44;;;;;;;0.00;0.00;;;14.70;61.80;;;;;;4170894;28;20090;-69
2022/05/29 06:08:08;;;;;;;0.00;0.00;;;14.60;62.30;;;;;;4183510;28;20049;-66
2022/05/29 06:10:33;;;;;;;0.00;0.00;;;14.70;62.30;;;;;;4153239;28;20444;-69
2022/05/29 06:13:00;;;;;;;0.00;0.00;;;14.60;62.60;;;;;;4153149;28;20166;-69
2022/05/29 06:15:22;;;;;;;0.00;0.00;;;14.70;62.10;;;;;;4166926;28;20049;-71
2022/05/29 06:17:47;;;;;;;0.00;0.00;;;14.80;62.00;;;;;;4153018;28;20045;-72
2022/05/29 06:20:13;;;;;;;0.00;0.00;;;14.80;61.80;;;;;;4152917;28;20476;-69
2022/05/29 06:22:39;;;;;;;0.00;0.00;;;14.90;62.10;;;;;;4166621;28;20497;-70
2022/05/29 06:25:04;;;;;;;0.00;0.00;;;14.90;61.60;;;;;;4166759;28;20088;-66
2022/05/29 06:27:28;;;;;;;0.00;0.00;;;15.00;61.70;;;;;;4166229;28;20042;-68
2022/05/29 06:29:53;;;;;;;0.00;0.00;;;15.10;61.50;;;;;;4153195;28;20046;-70
2022/05/29 06:32:15;;;;;;;0.00;0.00;;;15.10;61.50;;;;;;4166778;28;20050;-69
2022/05/29 06:34:40;;;;;;;0.00;0.00;;;15.10;61.80;;;;;;4170180;28;20102;-67
2022/05/29 06:37:07;;;;;;;0.00;0.00;;;15.10;61.30;;;;;;4183254;28;20041;-69
2022/05/29 06:39:29;;;;;;;0.00;0.00;;;15.00;61.90;;;;;;4168846;28;20049;-65
2022/05/29 06:41:54;;;;;;;0.00;0.00;;;15.00;61.90;;;;;;4155354;28;20053;-66
2022/05/29 06:44:20;;;;;;;0.00;0.00;;;15.10;61.70;;;;;;4182484;28;20091;-67
2022/05/29 06:46:42;;;;;;;0.00;0.00;;;15.10;61.60;;;;;;4168944;28;20052;-68
2022/05/29 06:49:06;;;;;;;0.00;0.00;;;15.20;61.40;;;;;;4182151;28;20055;-75
2022/05/29 06:51:31;;;;;;;0.00;0.00;;;15.30;61.10;;;;;;4182472;28;20489;-69
2022/05/29 06:53:56;;;;;;;0.00;0.00;;;15.50;60.40;;;;;;4183303;28;20511;-69
2022/05/29 06:56:21;;;;;;;0.00;0.00;;;15.60;60.40;;;;;;4169622;28;20092;-71
2022/05/29 06:58:43;;;;;;;0.00;0.00;;;15.60;60.00;;;;;;4169867;28;20392;-72
2022/05/29 07:09:17;;;;;;;0.00;0.00;;;16.00;60.10;;;;;;4171585;28;20464;-73
2022/05/29 07:11:45;;;;;;;0.00;0.00;;;16.10;59.40;;;;;;4176486;28;20055;-71
2022/05/29 07:14:08;;;;;;;0.00;0.00;;;16.00;58.90;;;;;;4182559;28;20053;-72
2022/05/29 07:16:30;;;;;;;0.00;0.00;;;15.90;58.60;;;;;;4168743;28;20079;-70
2022/05/29 07:18:54;;;;;;;0.00;0.00;;;15.80;58.80;;;;;;4168375;28;20055;-69
2022/05/29 07:21:21;;;;;;;0.00;0.00;;;16.00;59.10;;;;;;4182438;28;20114;-68
2022/05/29 07:23:46;;;;;;;0.00;0.00;;;16.00;59.20;;;;;;4168445;28;20083;-69
2022/05/29 07:26:10;;;;;;;0.00;0.00;;;16.00;59.20;;;;;;4182422;28;20175;-68
2022/05/29 07:28:34;;;;;;;0.00;0.00;;;16.10;59.40;;;;;;4154719;28;20080;-70
2022/05/29 07:31:01;;;;;;;0.00;0.00;;;16.00;59.20;;;;;;4168592;28;20396;-69
2022/05/29 07:33:26;;;;;;;0.00;0.00;;;16.00;59.20;;;;;;4154315;28;20076;-69
2022/05/29 07:35:48;;;;;;;0.00;0.00;;;16.10;58.90;;;;;;4168145;28;20110;-71
2022/05/29 07:38:10;;;;;;;0.00;0.00;;;16.30;58.70;;;;;;4168455;28;20144;-70
2022/05/29 07:40:32;;;;;;;0.00;0.00;;;16.40;58.60;;;;;;4182372;28;20064;-69
2022/05/29 07:45:39;;;;;;;0.00;0.00;;;16.40;59.30;;;;;;4168004;28;20059;-71
2022/05/29 07:48:04;;;;;;;0.00;0.00;;;16.40;59.40;;;;;;4170653;28;20168;-72
2022/05/29 07:50:28;;;;;;;0.00;0.00;;;16.40;59.40;;;;;;4171754;28;20073;-69
2022/05/29 07:52:54;;;;;;;0.00;0.00;;;16.50;60.10;;;;;;4182071;28;20041;-71
2022/05/29 07:55:17;;;;;;;0.00;0.00;;;16.60;60.40;;;;;;4158050;28;20415;-69
2022/05/29 07:57:42;;;;;;;0.00;0.00;;;16.80;60.50;;;;;;4170425;28;20368;-72
2022/05/29 08:00:09;;;;;;;0.00;0.00;;;16.90;59.60;;;;;;4181448;28;20048;-70
2022/05/29 08:02:34;;;;;;;0.00;0.00;;;16.80;60.00;;;;;;4182012;28;20048;-70
2022/05/29 08:05:00;;;;;;;0.00;0.00;;;16.90;59.60;;;;;;4154978;28;20127;-70
2022/05/29 08:07:25;;;;;;;0.00;0.00;;;16.90;59.30;;;;;;4168481;28;20052;-70
2022/05/29 08:09:47;;;;;;;0.00;0.00;;;16.70;59.80;;;;;;4168163;28;20104;-71
2022/05/29 08:12:11;;;;;;;0.00;0.00;;;16.80;60.60;;;;;;4167985;28;20100;-71
2022/05/29 08:14:33;;;;;;;0.00;0.00;;;17.10;60.00;;;;;;4168059;28;20054;-69
2022/05/29 08:16:56;;;;;;;0.00;0.00;;;17.10;59.00;;;;;;4167949;28;20095;-70
2022/05/29 08:19:20;;;;;;;0.00;0.00;;;17.10;59.20;;;;;;4168526;28;20429;-70
2022/05/29 08:21:44;;;;;;;0.00;0.00;;;17.00;60.20;;;;;;4168191;28;20468;-69
2022/05/29 08:32:49;;;;;;;0.00;0.00;;;17.60;58.90;;;;;;4199365;28;20064;-67
2022/05/29 08:35:13;;;;;;;0.00;0.00;;;17.30;59.30;;;;;;4156527;28;20744;-68
2022/05/29 08:37:35;;;;;;;0.00;0.00;;;17.20;59.40;;;;;;4182862;28;20135;-68
2022/05/29 08:40:00;;;;;;;0.00;0.00;;;17.20;59.30;;;;;;4181685;28;20426;-67
2022/05/29 08:42:29;;;;;;;0.00;0.00;;;17.30;58.60;;;;;;4169583;28;20071;-69
2022/05/29 08:44:52;;;;;;;0.00;0.00;;;17.40;57.90;;;;;;4183567;28;20483;-69
2022/05/29 08:47:25;;;;;;;0.00;0.00;;;17.30;58.80;;;;;;4169503;28;20095;-71
2022/05/29 08:49:50;;;;;;;0.00;0.00;;;17.40;59.00;;;;;;4181601;28;20465;-69
2022/05/29 08:52:24;;;;;;;0.00;0.00;;;17.50;59.00;;;;;;4181954;28;20056;-68
2022/05/29 08:54:58;;;;;;;0.00;0.00;;;17.70;57.10;;;;;;4167979;28;20120;-73
2022/05/29 08:57:53;;;;;;;0.00;0.00;;;17.40;57.80;;;;;;4181547;28;20506;-71
2022/05/29 09:00:24;;;;;;;0.00;0.00;;;17.50;58.50;;;;;;4181936;28;20045;-71
2022/05/29 09:03:23;;;;;;;0.00;0.00;;;17.80;58.70;;;;;;4167832;28;20050;-75
2022/05/29 09:05:55;;;;;;;0.00;0.00;;;17.90;58.10;;;;;;4181904;28;20430;-72
2022/05/29 09:08:44;;;;;;;0.00;0.00;;;17.70;57.50;;;;;;4168002;28;20671;-73
2022/05/29 09:11:29;;;;;;;0.00;0.00;;;17.60;58.10;;;;;;4169871;28;20064;-70
2022/05/29 09:14:00;;;;;;;0.00;0.00;;;18.00;58.40;;;;;;4168716;28;20060;-73
2022/05/29 09:16:27;;;;;;;0.00;0.00;;;18.40;58.00;;;;;;4185115;28;20045;-70
2022/05/29 09:19:13;;;;;;;0.00;0.00;;;18.50;56.50;;;;;;4171320;28;20058;-71
2022/05/29 09:21:46;;;;;;;0.00;0.00;;;18.30;56.50;;;;;;4185510;28;20525;-70
2022/05/29 09:24:26;;;;;;;0.00;0.00;;;18.30;56.50;;;;;;4170854;28;20065;-72
2022/05/29 09:26:53;;;;;;;0.00;0.00;;;18.30;56.30;;;;;;4184919;28;20053;-73
2022/05/29 09:29:18;;;;;;;0.00;0.00;;;18.40;55.90;;;;;;4184363;28;20057;-71
2022/05/29 09:31:43;;;;;;;0.00;0.00;;;18.50;56.20;;;;;;4170819;28;20064;-71
2022/05/29 09:34:11;;;;;;;0.00;0.00;;;18.30;56.20;;;;;;4184233;28;20141;-72
2022/05/29 09:36:52;;;;;;;0.00;0.00;;;18.40;56.10;;;;;;4171336;28;20042;-71
2022/05/29 09:39:24;;;;;;;;;;;18.60;55.50;;;;;;4184640;28;20152;-75
2022/05/29 09:42:09;;;;;;;0.00;0.00;;;18.80;55.30;;;;;;4169914;28;19947;-71
2022/05/29 09:44:33;;;;;;;0.00;0.00;;;18.70;54.30;;;;;;4183929;28;20420;-73
2022/05/29 09:49:40;;;;;;;0.00;0.00;;;18.70;54.30;;;;;;4169835;28;20053;-72
2022/05/29 09:49:43;;;;;;;0.00;0.00;;;18.80;54.10;;;;;;4169855;28;20080;-73
2022/05/29 09:52:30;;;;;;;0.00;0.00;;;18.90;54.10;;;;;;4185136;28;20482;-72
2022/05/29 09:54:56;;;;;;;0.00;0.00;;;19.10;53.80;;;;;;4171270;28;20060;-72
2022/05/29 09:57:28;;;;;;;0.00;0.00;;;19.20;53.40;;;;;;4172113;28;20057;-72
2022/05/29 10:00:02;;;;;;;0.00;0.00;;;19.20;52.80;;;;;;4172050;28;20384;-71
2022/05/29 10:02:38;;;;;;;0.00;0.00;;;19.10;53.10;;;;;;4186248;28;20049;-71
2022/05/29 10:05:04;;;;;;;0.00;0.00;;;19.00;52.80;;;;;;4185441;28;20056;-72
2022/05/29 10:07:36;;;;;;;0.00;0.00;;;18.90;53.50;;;;;;4158409;28;20042;-73
2022/05/29 10:10:02;;;;;;;0.00;0.00;;;18.90;54.00;;;;;;4188076;28;20055;-74
2022/05/29 10:12:35;;;;;;;0.00;0.00;;;18.90;54.70;;;;;;4188683;28;20045;-73
2022/05/29 10:15:00;;;;;;;0.00;0.00;;;19.00;54.80;;;;;;4188439;28;20103;-72
2022/05/29 10:17:30;;;;;;;0.00;0.00;;;19.00;53.50;;;;;;4173004;28;20052;-68
2022/05/29 10:19:55;;;;;;;0.00;0.00;;;19.00;54.00;;;;;;4173097;28;20117;-69
2022/05/29 10:22:29;;;;;;;0.00;0.00;;;19.20;54.00;;;;;;4173283;28;20084;-68
2022/05/29 10:24:52;;;;;;;0.00;0.00;;;19.20;53.30;;;;;;4187723;28;20361;-71
2022/05/29 10:27:50;;;;;;;0.00;0.00;;;19.20;53.10;;;;;;4173628;28;20427;-69
2022/05/29 10:30:49;;;;;;;0.00;0.00;;;19.00;54.10;;;;;;4177443;28;20095;-70
2022/05/29 10:33:22;;;;;;;0.00;0.00;;;18.90;54.30;;;;;;4186906;28;20132;-71
2022/05/29 10:35:44;;;;;;;0.00;0.00;;;19.00;54.50;;;;;;4172871;28;20103;-71
2022/05/29 10:38:19;;;;;;;0.00;0.00;;;19.20;54.20;;;;;;4187056;28;20529;-72
2022/05/29 10:40:45;;;;;;;0.00;0.00;;;19.30;54.00;;;;;;4173686;28;20440;-68
2022/05/29 10:43:09;;;;;;;0.00;0.00;;;19.40;53.80;;;;;;4173892;28;20060;-68
2022/05/29 10:45:40;;;;;;;0.00;0.00;;;19.50;53.40;;;;;;4159109;28;20053;-70
2022/05/29 10:48:03;;;;;;;0.00;0.00;;;19.60;52.50;;;;;;4186461;28;20044;-73
2022/05/29 10:50:29;;;;;;;0.00;0.00;;;19.50;52.20;;;;;;4186945;28;20045;-68
2022/05/29 10:53:22;;;;;;;0.00;0.00;;;19.40;52.40;;;;;;4172512;28;20053;-69
2022/05/29 10:55:44;;;;;;;0.00;0.00;;;19.30;51.90;;;;;;4172236;28;20049;-67
2022/05/29 10:58:35;;;;;;;0.00;0.00;;;19.40;53.30;;;;;;4185621;28;20076;-67
2022/05/29 11:04:40;;;;;;;0.00;0.00;;;19.60;52.00;;;;;;4171748;28;20192;-67
2022/05/29 11:07:42;;;;;;;0.00;0.00;;;19.80;52.30;;;;;;4157828;28;20104;-68
2022/05/29 11:10:10;;;;;;;0.00;0.00;;;20.10;52.80;;;;;;4172307;28;20045;-71
2022/05/29 11:13:03;;;;;;;0.00;0.00;;;20.10;51.60;;;;;;4183126;28;20590;-73
2022/05/29 11:15:40;;;;;;;0.00;0.00;;;20.20;51.30;;;;;;4156994;28;20053;-73
2022/05/29 11:18:07;;;;;;;0.00;0.00;;;20.20;51.20;;;;;;4170480;28;20443;-71
2022/05/29 11:20:55;;;;;;;0.00;0.00;;;20.20;50.60;;;;;;4182194;28;20557;-72
2022/05/29 11:23:22;;;;;;;0.00;0.00;;;20.10;50.40;;;;;;4171031;28;20087;-72
2022/05/29 11:25:59;;;;;;;0.00;0.00;;;19.90;50.40;;;;;;4174809;28;20047;-71
2022/05/29 11:28:58;;;;;;;0.00;0.00;;;19.70;50.70;;;;;;4173719;28;20115;-72
2022/05/29 11:31:52;;;;;;;0.00;0.00;;;19.70;51.20;;;;;;4188098;28;20095;-70
2022/05/29 11:34:31;;;;;;;0.00;0.00;;;19.50;50.90;;;;;;4187989;28;20033;-73
2022/05/29 11:37:27;;;;;;;0.00;0.00;;;19.40;50.90;;;;;;4160150;28;20045;-71
2022/05/29 11:40:20;;;;;;;0.00;0.00;;;19.50;51.40;;;;;;4187787;28;20059;-70
2022/05/29 11:43:01;;;;;;;0.00;0.00;;;19.50;51.90;;;;;;4173318;28;20060;-71
2022/05/29 11:51:07;;;;;;;0.00;0.00;;;19.60;52.10;;;;;;4173718;28;20045;-72
2022/05/29 11:51:08;;;;;;;0.00;0.00;;;19.70;51.40;;;;;;4187434;28;20053;-74
2022/05/29 11:53:36;;;;;;;0.00;0.00;;;19.80;50.80;;;;;;4159720;28;20125;-71
2022/05/29 11:56:04;;;;;;;0.00;0.00;;;19.80;50.60;;;;;;4173273;28;20081;-70
2022/05/29 11:58:46;;;;;;;0.00;0.00;;;19.80;50.60;;;;;;4173442;28;20081;-75
2022/05/29 12:01:26;;;;;;;0.00;0.00;;;19.90;50.70;;;;;;4186480;28;20041;-72
2022/05/29 12:03:51;;;;;;;0.00;0.00;;;19.90;50.40;;;;;;4171833;28;20033;-69
2022/05/29 12:06:39;;;;;;;0.00;0.00;;;19.90;50.10;;;;;;4169673;28;20053;-69
2022/05/29 12:09:13;;;;;;;0.00;0.00;;;19.50;50.00;;;;;;4177615;28;20448;-70
2022/05/29 12:11:50;;;;;;;0.00;0.00;;;19.00;51.00;;;;;;4165092;28;20041;-72
2022/05/29 12:14:23;;;;;;;0.00;0.00;;;18.60;51.80;;;;;;4165122;28;20176;-70
2022/05/29 12:16:52;;;;;;;0.00;0.00;;;18.50;52.10;;;;;;4154392;28;20685;-69
2022/05/29 12:19:21;;;;;;;0.00;0.00;;;18.40;52.50;;;;;;4168034;28;20055;-70
2022/05/29 12:22:00;;;;;;;0.00;0.00;;;18.20;52.60;;;;;;4167892;28;20087;-68
2022/05/29 12:24:28;;;;;;;0.00;0.00;;;18.10;52.60;;;;;;4161128;28;20125;-71
2022/05/29 12:27:00;;;;;;;0.00;0.00;;;18.10;52.80;;;;;;4166080;28;20053;-67
2022/05/29 12:29:50;;;;;;;0.00;0.00;;;18.00;52.90;;;;;;4152760;28;20503;-69
2022/05/29 12:32:23;;;;;;;0.00;0.00;;;17.90;52.40;;;;;;4164937;28;20049;-68
2022/05/29 12:34:50;;;;;;;0.00;0.00;;;17.50;52.70;;;;;;4165257;28;20441;-72
2022/05/29 12:37:30;;;;;;;0.00;0.00;;;17.40;53.40;;;;;;4178949;28;20059;-69
2022/05/29 12:40:15;;;;;;;0.00;0.00;;;17.30;53.30;;;;;;4179198;28;20513;-70
2022/05/29 12:42:53;;;;;;;0.00;0.00;;;17.20;53.90;;;;;;4164459;28;20041;-73
2022/05/29 12:45:40;;;;;;;0.00;0.00;;;17.40;54.10;;;;;;4164689;28;20072;-72
2022/05/29 12:48:40;;;;;;;0.00;0.00;;;17.40;53.30;;;;;;4150871;28;20112;-69
2022/05/29 12:51:27;;;;;;;0.00;0.00;;;17.30;53.90;;;;;;4178552;28;20084;-71
2022/05/29 12:54:23;;;;;;;0.00;0.00;;;17.60;54.20;;;;;;4164898;28;20057;-69
2022/05/29 12:57:01;;;;;;;0.00;0.00;;;18.00;54.10;;;;;;4178202;28;20103;-68
2022/05/29 12:59:47;;;;;;;0.00;0.00;;;18.20;53.60;;;;;;4164492;28;20049;-69
2022/05/29 13:02:47;;;;;;;0.00;0.00;;;18.30;53.70;;;;;;4151327;28;20569;-69
2022/05/29 13:05:20;;;;;;;0.00;0.00;;;18.40;53.50;;;;;;4164724;28;20053;-69
2022/05/29 13:07:56;;;;;;;0.00;0.00;;;18.40;54.30;;;;;;4174797;28;20364;-70
2022/05/29 13:10:42;;;;;;;0.00;0.00;;;18.40;53.50;;;;;;4167178;28;20041;-70
2022/05/29 13:13:12;;;;;;;0.00;0.00;;;18.20;53.00;;;;;;4167235;28;20684;-71
2022/05/29 13:15:38;;;;;;;0.00;0.00;;;18.10;53.60;;;;;;4181220;28;20098;-70
2022/05/29 13:18:25;;;;;;;0.00;0.00;;;18.20;54.00;;;;;;4181045;28;20053;-70
2022/05/29 13:21:08;;;;;;;0.00;0.00;;;18.30;53.50;;;;;;4181102;28;20044;-69
2022/05/29 13:23:51;;;;;;;0.00;0.00;;;18.30;52.40;;;;;;4180723;28;20136;-69
2022/05/29 13:26:25;;;;;;;0.00;0.00;;;18.30;52.90;;;;;;4180785;28;20052;-71
2022/05/29 13:28:55;;;;;;;0.00;0.00;;;18.30;52.90;;;;;;4180599;28;20048;-70
2022/05/29 13:31:18;;;;;;;0.00;0.00;;;18.40;52.90;;;;;;4180712;28;20099;-73
2022/05/29 13:33:58;;;;;;;0.00;0.00;;;18.60;52.40;;;;;;4179795;28;20493;-73
2022/05/29 13:36:43;;;;;;;;;;;18.60;51.60;;;;;;4195402;28;20099;-71
2022/05/29 13:39:28;;;;;;;0.00;0.00;;;18.50;52.00;;;;;;4182757;28;19928;-72